Time;durP1;ratioP1;P1;durP2;ratioP2;P2;SDS_P1;SDS_P2;PMS_P1;PMS_P2;Temp;Humidity;BMP_temperature;BMP_pressure;BME280_temperature;BME280_humidity;BME280_pressure;Samples;Min_cycle;Max_cycle;Signal;HPM_P1;HPM_P2
2024/01/30 00:00:08;;;;;;;2.85;2.67;;;0.70;99.90;;;;;;4948258;29;20204;-81
2024/01/30 00:02:34;;;;;;;3.20;3.00;;;0.70;99.90;;;;;;4975999;28;20203;-83
2024/01/30 00:05:03;;;;;;;8.23;3.72;;;0.60;99.90;;;;;;4982403;28;20215;-80
2024/01/30 00:07:30;;;;;;;11.50;2.90;;;0.60;99.90;;;;;;4977532;28;20554;-82
2024/01/30 00:09:58;;;;;;;4.47;4.25;;;0.50;99.90;;;;;;4966453;28;20207;-80
2024/01/30 00:12:24;;;;;;;1.15;1.05;;;0.50;99.90;;;;;;4978495;28;20247;-80
2024/01/30 00:14:52;;;;;;;6.32;2.60;;;0.60;99.90;;;;;;4967944;28;20263;-83
2024/01/30 00:17:21;;;;;;;0.70;0.70;;;0.50;99.90;;;;;;4930348;28;20556;-82
2024/01/30 00:19:48;;;;;;;3.47;3.15;;;0.40;99.90;;;;;;4973964;28;20238;-82
2024/01/30 00:22:15;;;;;;;0.60;0.60;;;0.40;99.90;;;;;;4964742;28;20440;-81
2024/01/30 00:24:42;;;;;;;3.08;2.85;;;0.30;99.90;;;;;;4964600;28;20217;-80
2024/01/30 00:27:09;;;;;;;1.20;1.20;;;0.40;99.90;;;;;;4965226;28;20235;-83
2024/01/30 00:29:36;;;;;;;1.23;1.23;;;0.40;99.90;;;;;;4980167;28;20205;-86
2024/01/30 00:32:03;;;;;;;0.80;0.80;;;0.20;99.90;;;;;;4979826;28;20286;-86
2024/01/30 00:34:30;;;;;;;0.80;0.80;;;0.20;99.90;;;;;;4999699;28;20194;-84
2024/01/30 00:36:57;;;;;;;1.73;1.65;;;0.20;99.90;;;;;;4975539;28;20207;-82
2024/01/30 00:39:25;;;;;;;1.88;1.77;;;0.20;99.90;;;;;;4974155;28;20214;-79
2024/01/30 00:41:51;;;;;;;1.33;1.33;;;0.20;99.90;;;;;;4971216;28;20404;-79
2024/01/30 00:44:19;;;;;;;2.28;2.17;;;0.20;99.90;;;;;;4977234;28;20231;-79
2024/01/30 00:46:46;;;;;;;2.03;1.73;;;0.20;99.90;;;;;;4993341;28;20414;-81
2024/01/30 00:49:13;;;;;;;1.45;1.35;;;0.40;99.90;;;;;;4976974;28;20435;-81
2024/01/30 00:51:40;;;;;;;1.25;1.25;;;0.30;99.90;;;;;;4977875;28;20242;-81
2024/01/30 00:54:07;;;;;;;0.93;0.70;;;0.10;99.90;;;;;;4951467;28;20212;-80
2024/01/30 00:56:34;;;;;;;1.05;0.98;;;0.10;99.90;;;;;;4972298;28;20392;-80
2024/01/30 00:59:02;;;;;;;1.15;1.10;;;0.00;99.90;;;;;;4979901;28;20218;-80
2024/01/30 01:01:28;;;;;;;1.42;1.42;;;-0.10;99.90;;;;;;4968230;28;20225;-82
2024/01/30 01:03:55;;;;;;;1.02;1.02;;;0.00;99.90;;;;;;4953130;28;20239;-80
2024/01/30 01:06:23;;;;;;;1.65;1.55;;;-0.10;99.90;;;;;;4967213;28;20281;-80
2024/01/30 01:08:50;;;;;;;1.05;1.05;;;0.00;99.90;;;;;;4979379;28;20199;-79
2024/01/30 01:11:17;;;;;;;2.97;2.60;;;0.10;99.90;;;;;;4967619;28;20207;-80
2024/01/30 01:13:44;;;;;;;2.88;2.67;;;0.10;99.90;;;;;;4974916;28;20242;-78
2024/01/30 01:16:11;;;;;;;2.58;1.52;;;0.20;99.90;;;;;;4974356;28;20203;-80
2024/01/30 01:18:38;;;;;;;2.67;2.47;;;0.20;99.90;;;;;;4964840;28;20278;-80
2024/01/30 01:21:05;;;;;;;1.40;1.08;;;0.10;99.90;;;;;;4971690;28;20475;-83
2024/01/30 01:23:32;;;;;;;2.50;2.38;;;0.00;99.90;;;;;;4964715;28;20264;-81
2024/01/30 01:26:00;;;;;;;0.50;0.50;;;0.20;99.90;;;;;;4955596;28;20298;-81
2024/01/30 01:28:28;;;;;;;0.82;0.82;;;0.10;99.90;;;;;;4966980;28;20226;-79
2024/01/30 01:30:58;;;;;;;1.85;1.67;;;0.10;99.90;;;;;;4956336;29;20208;-81
2024/01/30 01:33:27;;;;;;;1.30;1.30;;;0.20;99.90;;;;;;4974128;28;20518;-81
2024/01/30 01:35:56;;;;;;;1.17;1.08;;;0.40;99.90;;;;;;4977270;28;20369;-79
2024/01/30 01:38:23;;;;;;;2.10;1.75;;;0.30;99.90;;;;;;4981243;28;20737;-79
2024/01/30 01:40:51;;;;;;;1.20;1.20;;;0.30;99.90;;;;;;4957527;28;20246;-80
2024/01/30 01:43:18;;;;;;;1.42;1.33;;;0.30;99.90;;;;;;4972221;28;20203;-82
2024/01/30 01:45:45;;;;;;;1.90;1.80;;;0.20;99.90;;;;;;4975414;28;20273;-81
2024/01/30 01:48:13;;;;;;;0.98;0.98;;;0.30;99.90;;;;;;4967570;28;20200;-81
2024/01/30 01:50:41;;;;;;;2.35;1.55;;;0.40;99.90;;;;;;4970423;28;20202;-80
2024/01/30 01:53:09;;;;;;;1.55;1.48;;;0.50;99.90;;;;;;4984522;28;20206;-81
2024/01/30 01:55:36;;;;;;;0.73;0.73;;;0.50;99.90;;;;;;4982921;28;20450;-83
2024/01/30 01:58:03;;;;;;;0.60;0.60;;;0.30;99.90;;;;;;4982091;28;20303;-79
2024/01/30 02:00:31;;;;;;;1.88;1.77;;;0.20;99.90;;;;;;4980809;28;20219;-81
2024/01/30 02:02:59;;;;;;;1.63;1.55;;;0.20;99.90;;;;;;4973633;28;20217;-83
2024/01/30 02:05:26;;;;;;;2.90;2.35;;;0.30;99.90;;;;;;4978404;28;20257;-80
2024/01/30 02:07:54;;;;;;;0.70;0.70;;;0.30;99.90;;;;;;4986610;28;20218;-80
2024/01/30 02:10:21;;;;;;;2.00;1.92;;;0.70;99.90;;;;;;4992209;28;20214;-83
2024/01/30 02:12:49;;;;;;;1.63;1.63;;;0.60;99.90;;;;;;4987160;28;20227;-81
2024/01/30 02:15:16;;;;;;;0.60;0.60;;;0.60;99.90;;;;;;4996861;28;20230;-84
2024/01/30 02:17:43;;;;;;;1.70;1.60;;;0.60;99.90;;;;;;4984976;28;20196;-85
2024/01/30 02:20:11;;;;;;;4.22;1.40;;;0.50;99.90;;;;;;4991388;28;20199;-80
2024/01/30 02:22:39;;;;;;;1.38;1.20;;;0.40;99.90;;;;;;4976487;28;20219;-80
2024/01/30 02:25:07;;;;;;;1.02;1.02;;;0.40;99.90;;;;;;4988410;28;20221;-79
2024/01/30 02:27:34;;;;;;;0.93;0.93;;;0.60;99.90;;;;;;4967613;28;20234;-79
2024/01/30 02:30:01;;;;;;;2.25;2.15;;;0.50;99.90;;;;;;4972235;28;20206;-80
2024/01/30 02:32:28;;;;;;;2.50;2.40;;;0.40;99.90;;;;;;4991006;28;20249;-80
2024/01/30 02:34:55;;;;;;;2.05;1.98;;;0.40;99.90;;;;;;4971759;28;20206;-79
2024/01/30 02:37:22;;;;;;;3.28;2.80;;;0.60;99.90;;;;;;4970268;28;20278;-79
2024/01/30 02:39:49;;;;;;;1.73;1.63;;;0.60;99.90;;;;;;4969335;28;20275;-80
2024/01/30 02:42:16;;;;;;;3.17;2.97;;;0.60;99.90;;;;;;4971775;28;20396;-80
2024/01/30 02:44:43;;;;;;;6.32;2.15;;;0.60;99.90;;;;;;4968645;28;20199;-80
2024/01/30 02:47:10;;;;;;;0.95;0.95;;;0.60;99.90;;;;;;4969637;28;20245;-82
2024/01/30 02:49:37;;;;;;;3.05;2.85;;;0.60;99.90;;;;;;4980428;28;20486;-80
2024/01/30 02:52:04;;;;;;;5.55;1.45;;;0.60;99.90;;;;;;4952320;28;20215;-79
2024/01/30 02:54:31;;;;;;;1.92;1.83;;;0.60;99.90;;;;;;4961121;28;20237;-79
2024/01/30 02:56:59;;;;;;;3.80;2.25;;;0.60;99.90;;;;;;4963768;28;20491;-79
2024/01/30 02:59:25;;;;;;;2.47;2.38;;;0.60;99.90;;;;;;4964319;28;20222;-79
2024/01/30 03:01:52;;;;;;;2.45;1.80;;;0.70;99.90;;;;;;4967557;28;20198;-80
2024/01/30 03:04:19;;;;;;;4.65;2.00;;;0.50;99.90;;;;;;4976515;28;20210;-81
2024/01/30 03:06:49;;;;;;;1.13;1.05;;;0.50;99.90;;;;;;4965814;28;20262;-82
2024/01/30 03:09:17;;;;;;;2.50;2.30;;;0.60;99.90;;;;;;4971354;28;20207;-81
2024/01/30 03:11:45;;;;;;;1.73;1.63;;;0.40;99.90;;;;;;4972417;28;20262;-81
2024/01/30 03:14:12;;;;;;;1.50;1.45;;;0.30;99.90;;;;;;4957844;28;20249;-79
2024/01/30 03:16:39;;;;;;;3.40;2.03;;;0.30;99.90;;;;;;4982487;28;20551;-80
2024/01/30 03:19:10;;;;;;;2.08;1.85;;;0.30;99.90;;;;;;4968066;28;20208;-79
2024/01/30 03:21:37;;;;;;;0.80;0.80;;;0.30;99.90;;;;;;4979749;28;20263;-84
2024/01/30 03:24:05;;;;;;;2.15;1.35;;;0.10;99.90;;;;;;4981400;28;20192;-81
2024/01/30 03:26:31;;;;;;;3.22;3.00;;;0.10;99.90;;;;;;4970536;28;20227;-82
2024/01/30 03:28:58;;;;;;;12.95;6.78;;;0.20;99.90;;;;;;4994647;28;20254;-83
2024/01/30 03:31:26;;;;;;;5.38;4.90;;;0.40;99.90;;;;;;4976066;28;20215;-81
2024/01/30 03:33:53;;;;;;;5.25;4.35;;;0.50;99.90;;;;;;4971983;28;20452;-80
2024/01/30 03:36:20;;;;;;;1.70;1.60;;;0.30;99.90;;;;;;4979054;28;20214;-83
2024/01/30 03:38:47;;;;;;;0.50;0.50;;;0.40;99.90;;;;;;4964558;28;20265;-81
2024/01/30 03:41:14;;;;;;;1.83;1.73;;;0.30;99.90;;;;;;4969370;28;20243;-79
2024/01/30 03:43:42;;;;;;;3.70;3.50;;;0.30;99.90;;;;;;4978131;28;20457;-79
2024/01/30 03:46:09;;;;;;;1.60;1.58;;;0.30;99.90;;;;;;4980336;28;20300;-80
2024/01/30 03:48:36;;;;;;;2.85;2.75;;;0.60;99.90;;;;;;4972748;28;20208;-81
2024/01/30 03:51:03;;;;;;;0.70;0.70;;;0.50;99.90;;;;;;4971023;28;20238;-79
2024/01/30 03:53:30;;;;;;;4.60;2.45;;;0.50;99.90;;;;;;4970523;28;20278;-80
2024/01/30 03:55:57;;;;;;;3.20;2.15;;;0.60;99.90;;;;;;4975470;28;20206;-81
2024/01/30 03:58:24;;;;;;;0.85;0.82;;;0.30;99.90;;;;;;4969539;28;20572;-80
2024/01/30 04:00:51;;;;;;;2.08;1.95;;;0.20;99.90;;;;;;4973270;28;20210;-81
2024/01/30 04:03:18;;;;;;;2.05;1.95;;;0.20;99.90;;;;;;4981190;28;20211;-80
2024/01/30 04:05:46;;;;;;;0.80;0.80;;;0.20;99.90;;;;;;4971872;28;20267;-80
2024/01/30 04:08:12;;;;;;;0.93;0.93;;;0.20;99.90;;;;;;4981913;28;20250;-81
2024/01/30 04:10:40;;;;;;;3.15;2.90;;;0.40;99.90;;;;;;4957172;28;20257;-80
2024/01/30 04:13:07;;;;;;;0.75;0.75;;;0.10;99.90;;;;;;4959300;28;20247;-80
2024/01/30 04:15:38;;;;;;;1.10;1.10;;;0.00;99.90;;;;;;4968152;28;20223;-80
2024/01/30 04:18:05;;;;;;;2.10;1.95;;;0.00;99.90;;;;;;4959578;28;20373;-83
2024/01/30 04:20:32;;;;;;;1.92;1.83;;;0.00;99.90;;;;;;4969702;28;20266;-80
2024/01/30 04:22:59;;;;;;;2.38;2.25;;;-0.10;99.90;;;;;;4974693;28;20523;-81
2024/01/30 04:25:27;;;;;;;2.90;2.72;;;0.10;99.90;;;;;;4981048;28;20494;-80
2024/01/30 04:27:54;;;;;;;2.00;1.88;;;0.10;99.90;;;;;;4964975;28;20290;-82
2024/01/30 04:30:21;;;;;;;2.58;2.38;;;0.00;99.90;;;;;;4956998;28;20221;-79
2024/01/30 04:32:48;;;;;;;5.88;3.72;;;-0.10;99.90;;;;;;4973359;28;20211;-80
2024/01/30 04:35:15;;;;;;;3.05;1.90;;;0.20;99.90;;;;;;4968767;28;20254;-79
2024/01/30 04:37:42;;;;;;;1.33;1.23;;;0.10;99.90;;;;;;4982019;28;20498;-82
2024/01/30 04:40:09;;;;;;;0.45;0.45;;;0.10;99.90;;;;;;4969825;28;20257;-80
2024/01/30 04:42:36;;;;;;;2.35;2.25;;;0.40;99.90;;;;;;4969268;28;20218;-79
2024/01/30 04:45:03;;;;;;;6.88;2.80;;;0.20;99.90;;;;;;4958907;28;20229;-80
2024/01/30 04:47:30;;;;;;;1.13;1.13;;;0.40;99.90;;;;;;4978846;28;20294;-81
2024/01/30 04:49:59;;;;;;;1.15;1.15;;;0.40;99.90;;;;;;4952046;28;20255;-83
2024/01/30 04:52:26;;;;;;;2.10;2.00;;;0.50;99.90;;;;;;4956483;28;20211;-79
2024/01/30 04:54:53;;;;;;;1.50;1.05;;;0.40;99.90;;;;;;4952711;28;20263;-80
2024/01/30 04:57:20;;;;;;;1.67;1.58;;;0.20;99.90;;;;;;4976091;28;20237;-79
2024/01/30 04:59:47;;;;;;;2.00;1.90;;;0.30;99.90;;;;;;4975339;28;20219;-82
2024/01/30 05:02:15;;;;;;;1.45;1.35;;;0.50;99.90;;;;;;4958909;28;20258;-78
2024/01/30 05:04:42;;;;;;;0.90;0.90;;;0.70;99.90;;;;;;4971168;28;20207;-82
2024/01/30 05:07:09;;;;;;;2.38;2.28;;;0.50;99.90;;;;;;4954242;28;20298;-80
2024/01/30 05:09:36;;;;;;;0.70;0.70;;;0.50;99.90;;;;;;4975857;28;20235;-79
2024/01/30 05:12:03;;;;;;;1.35;1.35;;;0.30;99.90;;;;;;4963657;28;20211;-81
2024/01/30 05:14:30;;;;;;;3.15;2.97;;;0.20;99.90;;;;;;4975875;28;20211;-80
2024/01/30 05:16:57;;;;;;;1.25;1.15;;;0.30;99.90;;;;;;4975622;28;20456;-79
2024/01/30 05:19:24;;;;;;;1.52;1.20;;;0.20;99.90;;;;;;4968346;28;20243;-81
2024/01/30 05:21:51;;;;;;;0.50;0.50;;;1.30;99.90;;;;;;4966393;28;20235;-85
2024/01/30 05:24:18;;;;;;;0.90;0.90;;;0.40;99.90;;;;;;4985861;28;20195;-84
2024/01/30 05:26:48;;;;;;;2.03;1.92;;;0.30;99.90;;;;;;4992521;28;20263;-85
2024/01/30 05:29:15;;;;;;;1.88;1.77;;;0.40;99.90;;;;;;4980660;28;20234;-79
2024/01/30 05:31:41;;;;;;;0.70;0.70;;;0.40;99.90;;;;;;4977375;28;20211;-83
2024/01/30 05:34:11;;;;;;;0.88;0.88;;;0.40;99.90;;;;;;4970855;28;20317;-80
2024/01/30 05:36:38;;;;;;;3.95;3.35;;;0.40;99.90;;;;;;4980824;28;20227;-80
2024/01/30 05:39:04;;;;;;;2.13;2.03;;;0.40;99.90;;;;;;4952681;28;20518;-79
2024/01/30 05:41:34;;;;;;;1.35;1.35;;;0.40;99.90;;;;;;4951744;28;20207;-79
2024/01/30 05:44:01;;;;;;;2.15;2.05;;;0.30;99.90;;;;;;4973972;28;20658;-78
2024/01/30 05:46:29;;;;;;;1.70;1.70;;;0.40;99.90;;;;;;4952925;28;20230;-81
2024/01/30 05:48:56;;;;;;;1.20;1.08;;;0.40;99.90;;;;;;4976644;28;20294;-80
2024/01/30 05:51:23;;;;;;;1.10;1.05;;;0.30;99.90;;;;;;4962137;28;20214;-80
2024/01/30 05:53:50;;;;;;;1.10;1.10;;;0.20;99.90;;;;;;4976821;28;20492;-81
2024/01/30 05:56:17;;;;;;;3.42;1.77;;;0.40;99.90;;;;;;4977508;28;20215;-78
2024/01/30 05:58:44;;;;;;;0.90;0.90;;;0.30;99.90;;;;;;4970683;28;20270;-80
2024/01/30 06:01:10;;;;;;;6.97;3.40;;;0.30;99.90;;;;;;4966815;28;20293;-82
2024/01/30 06:03:38;;;;;;;1.25;1.25;;;0.20;99.90;;;;;;4977964;28;20476;-79
2024/01/30 06:06:05;;;;;;;2.17;2.08;;;0.20;99.90;;;;;;4984451;28;20198;-78
2024/01/30 06:08:32;;;;;;;1.58;1.45;;;0.10;99.90;;;;;;4984400;28;20231;-80
2024/01/30 06:11:00;;;;;;;1.00;1.00;;;0.20;99.90;;;;;;4972058;28;20262;-81
2024/01/30 06:13:31;;;;;;;2.00;1.88;;;0.10;99.90;;;;;;4975792;28;20225;-80
2024/01/30 06:15:58;;;;;;;1.25;1.20;;;0.00;99.90;;;;;;4974546;28;20212;-80
2024/01/30 06:18:29;;;;;;;3.35;1.25;;;0.00;99.90;;;;;;4976393;28;20214;-82
2024/01/30 06:20:56;;;;;;;1.83;1.73;;;0.20;99.90;;;;;;4983221;28;20479;-81
2024/01/30 06:23:23;;;;;;;6.47;2.88;;;0.10;99.90;;;;;;4984894;28;20279;-82
2024/01/30 06:25:50;;;;;;;1.48;1.42;;;0.10;99.90;;;;;;4975791;28;20231;-80
2024/01/30 06:28:16;;;;;;;0.80;0.80;;;0.00;99.90;;;;;;4953881;28;20224;-83
2024/01/30 06:30:43;;;;;;;3.40;3.20;;;0.10;99.90;;;;;;4981600;28;20221;-84
2024/01/30 06:33:13;;;;;;;1.85;1.80;;;0.40;99.90;;;;;;4973417;28;20207;-82
2024/01/30 06:35:40;;;;;;;1.10;1.10;;;0.20;99.90;;;;;;4967029;28;20563;-80
2024/01/30 06:38:10;;;;;;;1.05;1.05;;;0.10;99.90;;;;;;4972217;28;20388;-78
2024/01/30 06:40:38;;;;;;;1.70;1.60;;;0.10;99.90;;;;;;4969520;28;20215;-81
2024/01/30 06:43:05;;;;;;;4.13;1.20;;;0.10;99.90;;;;;;4988792;28;20558;-81
2024/01/30 06:45:32;;;;;;;2.97;2.83;;;0.20;99.90;;;;;;4963119;28;20207;-82
2024/01/30 06:47:59;;;;;;;2.22;2.13;;;0.20;99.90;;;;;;4965504;28;20239;-80
2024/01/30 06:50:26;;;;;;;1.17;1.13;;;0.20;99.90;;;;;;4983414;28;20207;-80
2024/01/30 06:52:53;;;;;;;1.70;1.65;;;0.30;99.90;;;;;;4984619;28;20226;-80
2024/01/30 06:55:20;;;;;;;2.25;1.77;;;0.30;99.90;;;;;;4972522;28;20212;-81
2024/01/30 06:57:47;;;;;;;1.17;1.13;;;0.60;99.90;;;;;;4983067;28;20210;-81
2024/01/30 07:00:19;;;;;;;2.70;2.20;;;0.80;99.90;;;;;;4985205;28;20199;-81
2024/01/30 07:02:46;;;;;;;1.98;1.80;;;1.00;99.90;;;;;;4965260;28;20203;-78
2024/01/30 07:05:14;;;;;;;1.40;1.30;;;1.00;99.90;;;;;;4979921;28;20283;-80
2024/01/30 07:07:41;;;;;;;2.90;1.10;;;1.10;99.90;;;;;;4979221;28;20234;-81
2024/01/30 07:10:08;;;;;;;2.72;2.17;;;1.10;99.90;;;;;;4983838;28;20440;-80
2024/01/30 07:12:35;;;;;;;2.22;1.55;;;1.20;99.90;;;;;;4980787;28;20210;-85
2024/01/30 07:15:03;;;;;;;1.63;1.52;;;1.40;99.90;;;;;;4959620;28;20247;-79
2024/01/30 07:17:30;;;;;;;1.48;1.25;;;1.40;99.90;;;;;;4976271;28;20239;-81
2024/01/30 07:19:57;;;;;;;2.65;2.42;;;1.60;99.90;;;;;;4992901;28;20404;-81
2024/01/30 07:22:24;;;;;;;1.90;1.80;;;1.40;99.90;;;;;;4980132;28;20244;-79
2024/01/30 07:24:51;;;;;;;3.42;3.22;;;1.50;99.90;;;;;;4970688;28;20427;-80
2024/01/30 07:27:19;;;;;;;5.38;2.15;;;1.50;99.90;;;;;;4976867;28;20282;-80
2024/01/30 07:29:46;;;;;;;1.17;1.13;;;1.70;99.90;;;;;;4967904;28;20207;-81
2024/01/30 07:32:13;;;;;;;1.27;1.27;;;1.70;99.90;;;;;;4965049;28;20534;-80
2024/01/30 07:34:40;;;;;;;2.08;1.50;;;1.90;99.90;;;;;;4978853;28;20279;-82
2024/01/30 07:37:24;;;;;;;0.95;0.95;;;1.90;99.90;;;;;;4982558;28;20237;-81
2024/01/30 07:39:52;;;;;;;0.80;0.80;;;2.70;99.90;;;;;;4959898;28;20242;-80
2024/01/30 07:42:19;;;;;;;2.33;2.15;;;3.50;99.90;;;;;;4983854;28;20250;-79
2024/01/30 07:44:46;;;;;;;2.65;2.40;;;3.90;99.90;;;;;;4982207;28;20278;-82
2024/01/30 07:47:13;;;;;;;0.60;0.60;;;4.60;99.90;;;;;;4977067;28;20273;-80
2024/01/30 07:49:40;;;;;;;0.68;0.68;;;5.00;99.90;;;;;;4981301;28;20218;-82
2024/01/30 07:52:07;;;;;;;0.70;0.70;;;5.50;99.90;;;;;;4969183;28;20483;-79
2024/01/30 07:54:34;;;;;;;2.90;2.80;;;6.60;99.90;;;;;;4963788;28;20231;-78
2024/01/30 07:57:02;;;;;;;1.02;1.02;;;7.30;99.90;;;;;;4978305;28;20216;-79
2024/01/30 07:59:29;;;;;;;1.63;1.58;;;7.70;99.90;;;;;;4965803;28;20791;-80
2024/01/30 08:01:56;;;;;;;1.25;1.25;;;7.90;99.90;;;;;;4956831;28;20248;-78
2024/01/30 08:04:23;;;;;;;1.67;1.60;;;8.30;99.40;;;;;;4968782;28;20282;-80
2024/01/30 08:06:50;;;;;;;1.65;1.55;;;8.30;99.90;;;;;;4965908;28;20211;-79
2024/01/30 08:09:17;;;;;;;0.60;0.60;;;8.70;96.60;;;;;;4969623;28;20447;-80
2024/01/30 08:11:44;;;;;;;3.63;1.33;;;9.80;94.80;;;;;;4975354;28;20506;-81
2024/01/30 08:14:13;;;;;;;0.80;0.80;;;9.60;93.20;;;;;;4967582;28;20289;-81
2024/01/30 08:16:40;;;;;;;0.75;0.75;;;6.70;96.90;;;;;;4976833;28;20232;-79
2024/01/30 08:19:07;;;;;;;1.38;1.38;;;5.10;99.90;;;;;;4979548;28;20270;-80
2024/01/30 08:21:36;;;;;;;1.25;1.25;;;4.20;99.90;;;;;;4982277;28;20545;-78
2024/01/30 08:24:06;;;;;;;0.70;0.70;;;3.90;99.90;;;;;;4963747;28;20203;-81
2024/01/30 08:26:33;;;;;;;0.63;0.63;;;3.70;99.90;;;;;;4976121;28;20260;-82
2024/01/30 08:29:01;;;;;;;1.98;1.73;;;3.50;99.90;;;;;;4971128;28;20278;-80
2024/01/30 08:31:29;;;;;;;0.60;0.60;;;3.50;99.90;;;;;;4973663;28;20210;-79
2024/01/30 08:33:56;;;;;;;1.77;1.67;;;3.80;99.90;;;;;;4967212;28;20614;-81
2024/01/30 08:36:23;;;;;;;0.70;0.70;;;3.80;99.90;;;;;;4972770;28;20209;-79
2024/01/30 08:38:50;;;;;;;0.50;0.50;;;3.90;99.90;;;;;;4965909;28;20470;-82
2024/01/30 08:41:19;;;;;;;0.90;0.90;;;4.00;99.90;;;;;;4977177;28;20258;-82
2024/01/30 08:43:46;;;;;;;1.50;1.40;;;4.10;99.90;;;;;;4974773;28;20379;-79
2024/01/30 08:46:17;;;;;;;0.60;0.60;;;4.20;99.90;;;;;;4970524;28;20231;-79
2024/01/30 08:48:46;;;;;;;0.88;0.88;;;4.20;99.90;;;;;;4975222;28;20725;-81
2024/01/30 08:51:13;;;;;;;2.95;1.25;;;4.30;99.90;;;;;;4964786;28;20215;-85
2024/01/30 08:53:40;;;;;;;1.27;1.25;;;4.40;99.90;;;;;;4951603;28;20387;-82
2024/01/30 08:56:07;;;;;;;0.60;0.60;;;4.90;99.90;;;;;;4968021;28;20263;-81
2024/01/30 08:58:34;;;;;;;0.80;0.80;;;7.30;99.90;;;;;;4963055;28;20251;-79
2024/01/30 09:01:03;;;;;;;0.68;0.68;;;8.60;97.30;;;;;;4980134;28;20232;-80
2024/01/30 09:03:31;;;;;;;2.03;1.92;;;9.00;97.40;;;;;;4968071;28;20221;-82
2024/01/30 09:05:57;;;;;;;0.95;0.95;;;10.30;94.00;;;;;;4975929;28;20503;-82
2024/01/30 09:08:25;;;;;;;0.95;0.95;;;10.20;92.90;;;;;;4974066;28;20231;-80
2024/01/30 09:10:51;;;;;;;1.45;1.35;;;9.80;92.50;;;;;;4971084;28;20206;-80
2024/01/30 09:13:19;;;;;;;1.08;1.08;;;10.20;92.30;;;;;;4981630;28;20221;-79
2024/01/30 09:15:46;;;;;;;0.70;0.70;;;9.30;92.90;;;;;;4972770;28;20215;-78
2024/01/30 09:18:13;;;;;;;1.13;1.13;;;8.60;93.60;;;;;;4976375;28;20305;-79
2024/01/30 09:20:40;;;;;;;1.70;1.60;;;7.00;96.20;;;;;;4966479;28;20282;-80
2024/01/30 09:23:08;;;;;;;1.10;1.10;;;6.50;99.90;;;;;;4961072;28;20251;-81
2024/01/30 09:25:35;;;;;;;1.25;1.25;;;6.20;99.90;;;;;;4971975;28;20216;-82
2024/01/30 09:28:02;;;;;;;1.27;1.27;;;6.00;99.90;;;;;;4984872;28;20227;-81
2024/01/30 09:30:29;;;;;;;1.23;1.23;;;5.90;99.90;;;;;;4979903;28;20203;-81
2024/01/30 09:32:56;;;;;;;1.10;1.10;;;6.00;99.90;;;;;;4952248;28;20209;-80
2024/01/30 09:35:24;;;;;;;0.80;0.80;;;6.00;99.90;;;;;;4968087;28;20212;-81
2024/01/30 09:37:52;;;;;;;0.70;0.70;;;6.20;99.90;;;;;;4972779;28;20238;-80
2024/01/30 09:40:20;;;;;;;1.73;1.73;;;6.10;99.90;;;;;;4948792;28;20214;-80
2024/01/30 09:42:50;;;;;;;2.13;2.03;;;6.00;99.90;;;;;;4973702;28;20230;-80
2024/01/30 09:45:24;;;;;;;1.05;1.05;;;5.90;99.90;;;;;;4977666;28;20234;-83
2024/01/30 09:47:51;;;;;;;0.80;0.80;;;6.00;99.90;;;;;;4966863;28;20259;-82
2024/01/30 09:50:19;;;;;;;0.70;0.70;;;6.00;99.90;;;;;;4983404;28;20217;-82
2024/01/30 09:52:47;;;;;;;0.80;0.80;;;6.10;99.90;;;;;;4969387;28;20252;-80
2024/01/30 09:55:15;;;;;;;1.77;1.50;;;6.10;99.90;;;;;;4970181;28;20550;-80
2024/01/30 09:57:42;;;;;;;0.88;0.88;;;6.30;99.90;;;;;;4970758;28;20214;-83
2024/01/30 10:00:11;;;;;;;1.45;1.45;;;6.20;99.90;;;;;;4980780;28;20203;-80
2024/01/30 10:02:39;;;;;;;2.05;1.95;;;6.40;99.90;;;;;;4965453;28;20214;-81
2024/01/30 10:05:08;;;;;;;1.55;1.52;;;6.70;99.90;;;;;;4968490;28;20221;-80
2024/01/30 10:07:35;;;;;;;0.80;0.80;;;6.70;99.90;;;;;;4987995;28;20214;-82
2024/01/30 10:10:03;;;;;;;0.70;0.70;;;6.60;99.90;;;;;;4979435;28;20202;-84
2024/01/30 10:12:30;;;;;;;1.88;1.80;;;6.90;99.90;;;;;;4987624;28;20227;-84
2024/01/30 10:14:57;;;;;;;0.70;0.70;;;6.80;99.90;;;;;;4992525;28;20220;-84
2024/01/30 10:17:27;;;;;;;2.80;2.65;;;6.80;99.90;;;;;;4972595;28;20502;-82
2024/01/30 10:20:00;;;;;;;0.70;0.70;;;6.90;99.90;;;;;;4969268;28;20262;-85
2024/01/30 10:22:28;;;;;;;0.80;0.80;;;6.80;99.90;;;;;;4975234;28;20211;-82
2024/01/30 10:24:56;;;;;;;0.90;0.90;;;7.00;99.90;;;;;;4963769;28;20217;-81
2024/01/30 10:27:27;;;;;;;0.70;0.70;;;6.90;99.90;;;;;;4960896;28;20212;-80
2024/01/30 10:29:54;;;;;;;0.95;0.95;;;7.10;99.90;;;;;;4978302;28;20221;-80
2024/01/30 10:32:21;;;;;;;0.70;0.70;;;6.90;99.90;;;;;;4972373;28;20253;-84
2024/01/30 10:34:49;;;;;;;1.45;1.45;;;7.20;99.90;;;;;;4960377;28;20522;-79
2024/01/30 10:37:16;;;;;;;0.82;0.82;;;7.20;99.90;;;;;;4974007;28;20277;-81
2024/01/30 10:39:45;;;;;;;1.05;1.05;;;7.20;99.90;;;;;;4977888;28;20202;-80
2024/01/30 10:42:14;;;;;;;0.70;0.70;;;7.10;99.90;;;;;;4973080;28;20282;-80
2024/01/30 10:45:12;;;;;;;0.60;0.60;;;7.40;99.90;;;;;;4975876;28;20542;-78
2024/01/30 10:47:41;;;;;;;1.58;1.55;;;7.60;99.90;;;;;;4964825;28;20271;-79
2024/01/30 10:50:10;;;;;;;1.17;1.17;;;7.60;99.90;;;;;;4972730;28;20212;-82
2024/01/30 10:52:39;;;;;;;2.40;2.30;;;7.40;99.90;;;;;;4985862;28;20211;-79
2024/01/30 10:55:07;;;;;;;0.85;0.85;;;7.40;99.90;;;;;;4964100;28;20222;-81
2024/01/30 10:57:36;;;;;;;0.60;0.60;;;7.40;99.90;;;;;;4962277;28;20210;-81
2024/01/30 11:00:11;;;;;;;0.60;0.60;;;7.70;99.90;;;;;;4977354;28;20262;-80
2024/01/30 11:02:41;;;;;;;0.70;0.70;;;7.60;99.90;;;;;;4976802;28;20382;-80
2024/01/30 11:05:08;;;;;;;0.50;0.50;;;7.60;99.90;;;;;;4965809;28;20277;-82
2024/01/30 11:07:35;;;;;;;0.70;0.70;;;7.80;99.90;;;;;;4986533;28;20204;-82
2024/01/30 11:10:04;;;;;;;0.90;0.90;;;8.00;99.10;;;;;;4991504;28;20227;-83
2024/01/30 11:12:33;;;;;;;0.70;0.70;;;8.10;97.50;;;;;;4980645;28;20230;-83
2024/01/30 11:15:08;;;;;;;1.15;1.15;;;8.30;97.50;;;;;;4989798;28;20226;-82
2024/01/30 11:17:50;;;;;;;0.90;0.90;;;8.20;97.40;;;;;;4974651;28;20202;-81
2024/01/30 11:20:25;;;;;;;1.08;1.08;;;8.20;97.10;;;;;;4978255;28;20203;-80
2024/01/30 11:22:53;;;;;;;2.55;2.40;;;8.30;96.90;;;;;;4970823;28;20462;-81
2024/01/30 11:25:22;;;;;;;0.80;0.80;;;8.40;96.20;;;;;;4972005;28;20211;-80
2024/01/30 11:27:52;;;;;;;1.85;1.85;;;8.30;96.60;;;;;;4977284;28;20210;-80
2024/01/30 11:30:25;;;;;;;0.70;0.70;;;8.40;96.70;;;;;;4971498;28;20236;-79
2024/01/30 11:33:08;;;;;;;0.80;0.80;;;8.40;96.80;;;;;;4962731;28;20204;-78
2024/01/30 11:35:37;;;;;;;2.78;2.67;;;8.40;96.30;;;;;;4967985;28;20210;-79
2024/01/30 11:38:05;;;;;;;0.90;0.90;;;8.60;95.30;;;;;;4973942;28;20229;-79
2024/01/30 11:40:34;;;;;;;0.80;0.80;;;8.40;95.10;;;;;;4953641;28;20215;-82
2024/01/30 11:43:03;;;;;;;1.13;1.13;;;8.50;94.40;;;;;;4954554;28;20258;-83
2024/01/30 11:45:31;;;;;;;0.80;0.80;;;8.10;96.10;;;;;;4963084;28;20207;-78
2024/01/30 11:48:03;;;;;;;0.80;0.80;;;8.10;96.00;;;;;;4976380;28;20202;-81
2024/01/30 11:50:31;;;;;;;0.80;0.80;;;7.90;96.70;;;;;;4971318;28;20364;-80
2024/01/30 11:53:02;;;;;;;0.70;0.70;;;7.90;97.00;;;;;;4970588;28;20207;-83
2024/01/30 11:55:30;;;;;;;0.80;0.80;;;8.10;96.90;;;;;;4961668;28;20223;-79
2024/01/30 11:58:01;;;;;;;0.70;0.70;;;8.10;96.60;;;;;;4977977;28;20271;-79
2024/01/30 12:00:33;;;;;;;0.80;0.80;;;8.10;97.40;;;;;;4972574;28;20206;-82
2024/01/30 12:03:02;;;;;;;0.80;0.80;;;8.10;97.50;;;;;;4972259;28;20202;-81
2024/01/30 12:05:30;;;;;;;1.17;1.17;;;8.50;96.40;;;;;;4980422;28;20241;-82
2024/01/30 12:08:00;;;;;;;1.15;1.15;;;8.60;96.20;;;;;;4984190;28;20242;-79
2024/01/30 12:10:29;;;;;;;10.73;2.88;;;8.80;95.70;;;;;;4964192;28;20206;-79
2024/01/30 12:12:56;;;;;;;1.05;1.00;;;8.90;94.70;;;;;;4974358;28;20281;-79
2024/01/30 12:15:24;;;;;;;0.60;0.60;;;9.20;93.70;;;;;;4975231;28;20483;-78
2024/01/30 12:17:51;;;;;;;0.80;0.80;;;9.00;93.90;;;;;;4984869;28;20202;-80
2024/01/30 12:20:21;;;;;;;1.98;1.88;;;9.00;94.20;;;;;;4955741;28;20458;-79
2024/01/30 12:22:50;;;;;;;1.88;1.75;;;8.90;94.80;;;;;;4970551;28;20484;-81
2024/01/30 12:25:20;;;;;;;4.43;2.45;;;8.80;95.50;;;;;;4971874;28;20206;-83
2024/01/30 12:27:52;;;;;;;3.30;3.05;;;9.10;94.30;;;;;;4978871;28;20195;-80
2024/01/30 12:30:20;;;;;;;0.70;0.70;;;9.00;93.90;;;;;;4962336;28;20235;-80
2024/01/30 12:32:52;;;;;;;0.93;0.93;;;9.20;93.50;;;;;;4966918;28;20217;-81
2024/01/30 12:35:20;;;;;;;1.23;1.23;;;9.00;93.30;;;;;;4982872;28;20221;-82
2024/01/30 12:37:48;;;;;;;0.63;0.63;;;9.20;93.70;;;;;;4956018;28;20248;-80
2024/01/30 12:40:16;;;;;;;1.17;1.17;;;9.20;93.20;;;;;;4960486;28;20203;-82
2024/01/30 12:42:50;;;;;;;0.77;0.77;;;9.20;93.50;;;;;;4959000;28;20542;-80
2024/01/30 12:45:21;;;;;;;0.60;0.60;;;9.00;94.20;;;;;;4958082;28;20261;-82
2024/01/30 12:47:49;;;;;;;0.77;0.77;;;8.90;93.50;;;;;;4972177;28;20207;-81
2024/01/30 12:50:17;;;;;;;1.05;1.05;;;8.90;93.70;;;;;;4984342;28;20259;-80
2024/01/30 12:52:44;;;;;;;0.80;0.80;;;9.00;93.50;;;;;;4970029;28;20229;-81
2024/01/30 12:55:16;;;;;;;0.90;0.90;;;8.90;93.70;;;;;;4984541;28;20285;-82
2024/01/30 12:57:44;;;;;;;1.00;1.00;;;8.60;95.30;;;;;;4963339;28;20203;-80
2024/01/30 13:00:12;;;;;;;0.68;0.68;;;8.30;94.90;;;;;;4967376;28;20218;-83